Time;durP1;ratioP1;P1;durP2;ratioP2;P2;SDS_P1;SDS_P2;PMS_P1;PMS_P2;Temp;Humidity;BMP_temperature;BMP_pressure;BME280_temperature;BME280_humidity;BME280_pressure;Samples;Min_cycle;Max_cycle;Signal;HPM_P1;HPM_P2
2023/01/24 00:02:38;;;;;;;18.55;10.70;;;;;;;2.49;79.50;99525.19;10608142;28;20493;-77
2023/01/24 00:07:59;;;;;;;17.13;10.73;;;;;;;2.51;79.54;99519.97;10593358;28;20054;-77
2023/01/24 00:13:19;;;;;;;23.95;12.93;;;;;;;2.47;80.05;99522.19;10579543;28;20067;-77
2023/01/24 00:18:40;;;;;;;19.05;10.75;;;;;;;2.50;80.07;99512.91;10579332;28;20050;-77
2023/01/24 00:24:01;;;;;;;17.65;10.48;;;;;;;2.53;80.14;99516.69;10593591;28;20039;-77
2023/01/24 00:29:22;;;;;;;16.80;9.52;;;;;;;2.56;79.84;99516.44;10578919;28;20054;-77
2023/01/24 00:34:43;;;;;;;18.40;11.02;;;;;;;2.52;79.92;99515.19;10578827;28;20047;-77
2023/01/24 00:40:04;;;;;;;16.30;10.10;;;;;;;2.51;79.89;99525.47;10595253;27;20059;-77
2023/01/24 00:45:24;;;;;;;18.38;9.75;;;;;;;2.53;80.03;99519.47;10586473;27;20044;-77
2023/01/24 00:50:46;;;;;;;17.45;9.63;;;;;;;2.54;80.06;99523.72;10615324;27;20043;-78
2023/01/24 00:56:07;;;;;;;15.18;9.40;;;;;;;2.54;79.41;99535.50;10600555;27;20047;-77
2023/01/24 01:01:28;;;;;;;18.33;10.35;;;;;;;2.59;79.49;99545.03;10600192;27;20047;-77
2023/01/24 01:06:49;;;;;;;18.27;10.40;;;;;;;2.58;79.79;99538.00;10600081;27;20035;-77
2023/01/24 01:12:10;;;;;;;15.60;9.50;;;;;;;2.57;79.91;99544.78;10585921;27;20047;-77
2023/01/24 01:17:31;;;;;;;17.42;9.95;;;;;;;2.59;79.65;99547.78;10586326;27;20047;-77
2023/01/24 01:22:52;;;;;;;17.00;10.15;;;;;;;2.59;80.07;99547.78;10585492;27;20043;-77
2023/01/24 01:28:12;;;;;;;18.98;11.15;;;;;;;2.59;79.59;99559.56;10599215;27;20509;-78
2023/01/24 01:33:33;;;;;;;18.05;10.27;;;;;;;2.57;79.46;99556.56;10584928;27;20039;-77
2023/01/24 01:38:54;;;;;;;20.58;10.73;;;;;;;2.57;79.57;99556.56;10570692;27;20050;-78
2023/01/24 01:44:37;;;;;;;17.10;9.73;;;;;;;2.55;79.73;99552.78;10584548;27;20039;-78
2023/01/24 01:50:25;;;;;;;18.33;10.27;;;;;;;2.53;79.96;99556.03;10603395;27;20039;-78
2023/01/24 01:55:49;;;;;;;19.08;10.82;;;;;;;2.53;79.85;99550.53;10599789;27;20050;-78
2023/01/24 02:01:10;;;;;;;17.60;10.43;;;;;;;2.48;79.20;99553.25;10584108;27;20039;-77
2023/01/24 02:06:43;;;;;;;21.27;11.57;;;;;;;2.50;79.60;99562.53;10583832;27;20396;-77
2023/01/24 02:12:07;;;;;;;19.92;11.43;;;;;;;2.48;79.92;99562.28;10611844;27;20096;-77
2023/01/24 02:17:29;;;;;;;18.45;10.55;;;;;;;2.54;79.91;99556.81;10583570;27;20485;-77
2023/01/24 02:23:05;;;;;;;20.10;11.18;;;;;;;2.57;79.05;99551.03;10597343;27;20074;-77
2023/01/24 02:28:26;;;;;;;20.63;10.32;;;;;;;2.57;79.60;99553.03;10611132;27;20451;-77
2023/01/24 02:33:47;;;;;;;17.60;10.27;;;;;;;2.57;80.17;99556.56;10582922;27;20047;-77
2023/01/24 02:39:13;;;;;;;20.27;11.00;;;;;;;2.58;79.55;99546.28;10582588;27;20050;-78
2023/01/24 02:44:41;;;;;;;21.98;10.48;;;;;;;2.53;80.09;99544.28;10596851;27;20043;-77
2023/01/24 02:50:02;;;;;;;21.65;10.77;;;;;;;2.49;79.89;99535.47;10596128;27;20039;-77
2023/01/24 02:55:24;;;;;;;20.00;11.38;;;;;;;2.48;79.43;99531.97;10568299;27;20523;-77
2023/01/24 03:00:47;;;;;;;19.77;11.25;;;;;;;2.48;80.03;99529.19;10596177;27;20043;-77
2023/01/24 03:06:10;;;;;;;25.27;11.52;;;;;;;2.47;79.49;99535.22;10581541;27;20047;-77
2023/01/24 03:11:31;;;;;;;21.15;10.85;;;;;;;2.44;79.94;99538.97;10581696;27;20062;-77
2023/01/24 03:45:15;;;;;;;21.83;11.27;;;;;;;2.49;79.48;99538.97;10597051;27;20050;-78
2023/01/24 03:56:21;;;;;;;19.25;9.75;;;;;;;2.46;79.76;99545.50;10586351;28;20044;-77
2023/01/24 04:01:49;;;;;;;18.15;9.82;;;;;;;2.45;79.58;99544.00;10568616;27;20055;-78
2023/01/24 04:07:23;;;;;;;19.17;9.13;;;;;;;2.47;79.44;99541.47;10583569;28;20409;-77
2023/01/24 04:12:59;;;;;;;16.23;8.38;;;;;;;2.48;79.44;99540.22;10585096;27;20043;-77
2023/01/24 04:18:20;;;;;;;18.23;8.63;;;;;;;2.47;79.77;99527.69;10574484;27;20054;-77
2023/01/24 04:23:41;;;;;;;16.95;8.68;;;;;;;2.45;79.42;99529.47;10588482;27;20092;-77
2023/01/24 04:29:03;;;;;;;16.10;8.25;;;;;;;2.48;79.43;99542.97;10587995;27;20043;-77
2023/01/24 04:34:25;;;;;;;18.27;9.63;;;;;;;2.50;79.55;99548.75;10602001;27;20095;-77
2023/01/24 04:39:46;;;;;;;16.17;7.95;;;;;;;2.52;79.72;99535.25;10587338;27;20051;-77
2023/01/24 04:45:11;;;;;;;14.93;7.32;;;;;;;2.56;79.78;99543.28;10602715;27;20480;-78
2023/01/24 04:50:33;;;;;;;15.05;7.38;;;;;;;2.56;79.57;99537.75;10573131;27;20043;-77
2023/01/24 04:55:54;;;;;;;17.75;8.70;;;;;;;2.57;79.58;99544.78;10572620;27;20104;-77
2023/01/24 05:01:14;;;;;;;17.63;8.18;;;;;;;2.59;79.60;99545.03;10586482;27;20080;-78
2023/01/24 05:06:46;;;;;;;15.60;7.75;;;;;;;2.52;78.94;99548.28;10589078;27;20044;-78
2023/01/24 05:12:08;;;;;;;21.70;9.30;;;;;;;2.37;79.92;99551.22;10586174;27;20046;-78
2023/01/24 05:17:28;;;;;;;19.58;9.70;;;;;;;2.36;79.60;99552.47;10583090;27;20446;-78
2023/01/24 05:22:51;;;;;;;18.25;7.72;;;;;;;2.37;79.65;99558.75;10582677;27;20046;-77
2023/01/24 05:28:12;;;;;;;17.40;8.10;;;;;;;2.37;79.43;99553.97;10578188;27;20045;-77
2023/01/24 05:33:36;;;;;;;19.00;8.88;;;;;;;2.38;79.65;99558.25;10581664;27;20055;-78
2023/01/24 05:38:58;;;;;;;17.55;8.43;;;;;;;2.34;79.67;99560.50;10594063;27;20050;-77
2023/01/24 05:44:19;;;;;;;19.75;9.18;;;;;;;2.33;79.70;99561.00;10579735;27;20039;-78
2023/01/24 05:49:42;;;;;;;18.23;8.52;;;;;;;2.25;80.25;99560.69;10595949;27;20039;-77
2023/01/24 05:55:07;;;;;;;20.83;9.98;;;;;;;2.31;79.60;99566.97;10583390;27;20051;-78
2023/01/24 06:00:32;;;;;;;21.40;10.27;;;;;;;2.29;80.03;99569.47;10594205;27;20035;-78
2023/01/24 06:06:29;;;;;;;16.42;8.63;;;;;;;2.25;79.94;99582.75;10474534;27;20051;-76
2023/01/24 06:11:50;;;;;;;17.35;9.05;;;;;;;2.32;80.00;99585.03;10582169;27;20061;-78
2023/01/24 06:17:13;;;;;;;20.30;9.80;;;;;;;2.28;79.87;99590.00;10582502;27;20092;-78
2023/01/24 06:22:44;;;;;;;16.30;8.30;;;;;;;2.32;80.17;99598.81;10582291;27;20054;-77
2023/01/24 06:28:06;;;;;;;14.90;7.60;;;;;;;2.29;79.83;99599.78;10594774;27;20476;-78
2023/01/24 06:33:40;;;;;;;19.15;9.02;;;;;;;2.24;79.85;99600.53;10581663;27;20036;-78
2023/01/24 06:39:02;;;;;;;17.40;8.63;;;;;;;2.25;80.08;99602.03;10594382;27;20047;-78
2023/01/24 06:44:23;;;;;;;17.73;8.57;;;;;;;2.31;79.97;99605.56;10579602;27;20502;-78
2023/01/24 06:49:45;;;;;;;14.95;7.60;;;;;;;2.29;79.73;99613.56;10594050;27;20039;-78
2023/01/24 06:55:06;;;;;;;15.43;8.05;;;;;;;2.29;79.69;99621.84;10592764;27;20035;-78
2023/01/24 07:00:29;;;;;;;18.50;8.85;;;;;;;2.34;79.83;99626.63;10579317;27;20046;-78
2023/01/24 07:05:49;;;;;;;18.45;8.50;;;;;;;2.35;80.40;99630.91;10613155;27;20035;-78
2023/01/24 07:11:11;;;;;;;16.85;8.45;;;;;;;2.37;80.13;99638.66;10598293;27;20049;-78
2023/01/24 07:16:32;;;;;;;15.23;8.45;;;;;;;2.42;80.29;99644.22;10599636;27;20039;-78
2023/01/24 07:21:53;;;;;;;16.95;8.23;;;;;;;2.45;79.91;99639.72;10595303;27;20038;-78
2023/01/24 07:27:16;;;;;;;18.00;8.77;;;;;;;2.47;79.82;99635.22;10578525;27;20039;-78
2023/01/24 07:32:37;;;;;;;18.33;9.40;;;;;;;2.45;80.03;99637.72;10594497;27;20039;-78
2023/01/24 07:38:00;;;;;;;20.25;9.88;;;;;;;2.47;79.51;99640.72;10566710;27;20473;-78
2023/01/24 07:43:21;;;;;;;17.08;8.23;;;;;;;2.54;79.69;99648.53;10571402;27;20524;-77
2023/01/24 07:48:42;;;;;;;18.20;9.00;;;;;;;2.54;79.79;99648.53;10537345;28;20108;-77
2023/01/24 07:54:03;;;;;;;17.77;8.82;;;;;;;2.61;80.15;99655.59;10561864;28;20084;-77
2023/01/24 07:59:24;;;;;;;17.83;9.02;;;;;;;2.74;80.21;99657.88;10579109;27;20412;-77
2023/01/24 08:04:58;;;;;;;18.70;9.67;;;;;;;2.79;80.08;99665.41;10571059;28;20105;-77
2023/01/24 08:10:18;;;;;;;19.33;10.38;;;;;;;2.80;80.02;99669.72;10594074;27;20337;-77
2023/01/24 08:15:40;;;;;;;18.73;9.85;;;;;;;2.83;79.97;99666.69;10579947;27;20054;-77
2023/01/24 08:21:00;;;;;;;18.58;10.00;;;;;;;2.84;79.50;99664.69;10593589;28;20412;-77
2023/01/24 08:26:21;;;;;;;20.00;10.15;;;;;;;2.94;79.65;99665.22;10579502;28;20039;-77
2023/01/24 08:31:42;;;;;;;16.70;8.85;;;;;;;3.00;79.09;99668.78;10579445;28;20046;-77
2023/01/24 08:37:03;;;;;;;18.10;9.30;;;;;;;3.01;79.50;99662.75;10579370;27;20408;-77
2023/01/24 08:42:24;;;;;;;20.15;10.55;;;;;;;3.08;79.08;99669.78;10593706;28;20058;-77
2023/01/24 08:47:51;;;;;;;20.15;10.52;;;;;;;3.10;79.24;99673.56;10581069;28;20039;-77
2023/01/24 08:53:12;;;;;;;20.70;10.27;;;;;;;3.21;79.09;99683.88;10565247;27;20412;-77
2023/01/24 08:58:33;;;;;;;21.63;11.75;;;;;;;3.25;78.27;99681.63;10564654;27;20043;-77
2023/01/24 09:03:56;;;;;;;16.38;9.85;;;;;;;3.29;78.84;99686.91;10585542;27;20047;-77
2023/01/24 09:09:17;;;;;;;17.73;9.57;;;;;;;3.33;78.57;99693.69;10614863;27;20039;-77
2023/01/24 09:14:38;;;;;;;19.73;9.95;;;;;;;3.30;78.46;99688.44;10586464;27;20039;-78
2023/01/24 09:19:59;;;;;;;21.63;10.50;;;;;;;3.38;79.03;99697.72;10585895;27;20370;-77
2023/01/24 09:25:20;;;;;;;19.73;10.50;;;;;;;3.33;78.14;99701.22;10571916;27;20043;-77
2023/01/24 09:30:42;;;;;;;17.38;9.00;;;;;;;3.41;78.28;99693.97;10585341;27;20053;-77
2023/01/24 09:36:03;;;;;;;20.77;10.23;;;;;;;3.51;77.98;99711.06;10595957;27;20042;-77
2023/01/24 09:42:00;;;;;;;34.45;18.45;;;;;;;3.66;78.04;99712.31;10556872;28;20432;-77
2023/01/24 09:47:44;;;;;;;19.75;10.25;;;;;;;3.70;76.89;99717.59;10557503;28;20050;-77
2023/01/24 09:53:05;;;;;;;19.40;10.63;;;;;;;3.69;77.06;99708.56;10570513;28;20104;-77
2023/01/24 09:58:31;;;;;;;22.17;11.50;;;;;;;3.71;77.50;99708.81;10567707;28;20401;-76
2023/01/24 10:03:52;;;;;;;20.52;9.75;;;;;;;3.74;77.39;99718.09;10542090;28;20051;-77
2023/01/24 10:09:22;;;;;;;21.67;10.38;;;;;;;3.76;77.08;99707.31;10540344;28;20044;-77
2023/01/24 10:15:12;;;;;;;17.90;10.20;;;;;;;3.71;76.98;99708.81;10555645;28;20044;-77
2023/01/24 10:20:51;;;;;;;18.10;10.18;;;;;;;3.64;77.41;99709.31;10537702;28;20047;-77
2023/01/24 10:26:34;;;;;;;21.10;10.38;;;;;;;3.61;77.36;99698.50;10569211;28;20055;-77
2023/01/24 10:32:06;;;;;;;19.30;10.18;;;;;;;3.62;77.91;99697.25;10542443;28;20055;-77
2023/01/24 10:37:29;;;;;;;20.48;11.07;;;;;;;3.66;77.33;99687.47;10554897;28;20055;-77
2023/01/24 10:42:50;;;;;;;22.40;12.63;;;;;;;3.64;76.71;99689.97;10512506;28;20485;-77
2023/01/24 10:48:22;;;;;;;20.45;11.25;;;;;;;3.57;77.08;99684.97;10512189;28;20036;-77
2023/01/24 10:53:43;;;;;;;27.52;12.88;;;;;;;3.53;77.40;99678.16;10512185;28;20401;-77
2023/01/24 10:59:07;;;;;;;25.00;12.95;;;;;;;3.52;77.43;99677.41;10512027;28;20113;-77
2023/01/24 11:04:29;;;;;;;22.88;12.90;;;;;;;3.55;77.55;99673.66;10511913;28;20051;-77
2023/01/24 11:09:50;;;;;;;25.23;13.80;;;;;;;3.48;77.53;99665.13;10525151;28;20386;-77
2023/01/24 11:15:24;;;;;;;23.25;10.90;;;;;;;3.42;78.15;99671.38;10546705;28;20392;-77
2023/01/24 11:20:45;;;;;;;19.63;10.93;;;;;;;3.47;78.11;99666.34;10551030;28;20531;-75
2023/01/24 11:26:18;;;;;;;23.58;11.90;;;;;;;3.44;77.49;99662.59;10527821;28;20039;-75
2023/01/24 11:31:42;;;;;;;21.55;11.63;;;;;;;3.43;77.83;99672.13;10551925;28;20054;-76
2023/01/24 11:37:22;;;;;;;20.83;11.43;;;;;;;3.43;78.11;99669.38;10550084;28;20043;-76
2023/01/24 11:43:11;;;;;;;21.98;11.43;;;;;;;3.49;77.50;99663.88;10551877;28;20052;-76
2023/01/24 11:49:24;;;;;;;19.40;10.10;;;;;;;3.48;77.70;99665.88;10551753;28;20063;-75
2023/01/24 11:54:51;;;;;;;21.90;10.68;;;;;;;3.47;77.55;99656.06;10536927;28;20056;-75
2023/01/24 12:00:24;;;;;;;21.52;10.10;;;;;;;3.46;77.48;99657.31;10545960;28;20089;-76
2023/01/24 12:06:30;;;;;;;20.50;10.77;;;;;;;3.51;77.88;99650.31;10562289;28;20047;-75
2023/01/24 12:11:58;;;;;;;18.35;10.85;;;;;;;3.59;77.88;99646.53;10571158;28;20130;-76
2023/01/24 12:17:43;;;;;;;17.52;9.35;;;;;;;3.53;77.70;99643.03;10589714;28;20404;-75
2023/01/24 12:23:15;;;;;;;19.55;10.00;;;;;;;3.55;77.40;99634.97;10592410;28;20046;-75
2023/01/24 12:28:43;;;;;;;18.58;10.73;;;;;;;3.63;77.50;99647.03;10560628;28;20051;-76
2023/01/24 12:34:42;;;;;;;21.83;10.90;;;;;;;3.60;77.02;99650.06;10560093;27;20039;-76
2023/01/24 12:40:07;;;;;;;21.80;11.43;;;;;;;3.58;77.19;99644.28;10609999;27;20054;-75
2023/01/24 12:45:34;;;;;;;19.58;10.45;;;;;;;3.51;77.42;99645.53;10605195;27;20476;-76
2023/01/24 12:51:34;;;;;;;21.63;11.82;;;;;;;3.51;77.53;99645.53;10617894;27;20050;-75
2023/01/24 12:57:01;;;;;;;25.15;12.63;;;;;;;3.48;77.46;99641.03;10625709;27;20078;-75
2023/01/24 13:02:37;;;;;;;25.02;12.63;;;;;;;3.58;77.49;99647.81;10630642;27;20043;-75
2023/01/24 13:08:16;;;;;;;28.38;14.52;;;;;;;3.49;77.30;99636.25;10600721;27;20136;-75
2023/01/24 13:14:02;;;;;;;24.38;13.35;;;;;;;3.41;77.36;99638.75;10628579;27;20057;-75
2023/01/24 13:20:01;;;;;;;26.55;13.15;;;;;;;3.35;78.32;99629.69;10633429;27;20043;-75
2023/01/24 13:25:25;;;;;;;30.05;14.15;;;;;;;3.35;78.00;99624.19;10621588;27;20041;-76
2023/01/24 13:30:48;;;;;;;29.05;14.68;;;;;;;3.39;77.27;99625.44;10613921;27;20039;-75
2023/01/24 13:36:13;;;;;;;26.33;15.27;;;;;;;3.35;77.66;99627.69;10599432;27;20397;-76
2023/01/24 13:41:38;;;;;;;29.80;14.95;;;;;;;3.48;77.92;99620.94;10585706;27;20055;-76
2023/01/24 13:47:00;;;;;;;23.98;13.40;;;;;;;3.56;77.84;99630.97;10584193;27;20066;-75
2023/01/24 13:52:30;;;;;;;24.33;13.32;;;;;;;3.43;77.72;99636.22;10585049;27;20035;-75
2023/01/24 13:58:03;;;;;;;23.75;12.27;;;;;;;3.39;77.39;99633.72;10631081;27;20043;-75
2023/01/24 14:03:27;;;;;;;25.00;13.45;;;;;;;3.37;78.17;99638.97;10598284;27;20412;-75
2023/01/24 14:08:54;;;;;;;25.23;13.38;;;;;;;3.27;78.34;99634.19;10598418;27;20039;-76
2023/01/24 14:14:31;;;;;;;24.48;12.90;;;;;;;3.32;77.77;99639.75;10584396;27;20046;-75
2023/01/24 14:19:54;;;;;;;26.25;14.18;;;;;;;3.22;78.24;99640.47;10584910;27;20095;-75
2023/01/24 14:25:31;;;;;;;26.63;13.23;;;;;;;3.19;78.38;99655.28;10594100;27;20051;-76
2023/01/24 14:30:57;;;;;;;22.95;12.05;;;;;;;3.16;78.40;99657.75;10631038;27;20046;-75
2023/01/24 14:36:31;;;;;;;26.35;14.25;;;;;;;3.09;77.84;99655.50;10603299;27;20126;-75
2023/01/24 14:42:03;;;;;;;24.30;13.82;;;;;;;3.07;78.84;99660.75;10574591;27;20059;-75
2023/01/24 14:47:25;;;;;;;25.70;12.88;;;;;;;3.08;78.18;99665.00;10600108;27;20042;-75
2023/01/24 14:52:46;;;;;;;24.58;14.00;;;;;;;3.07;78.58;99677.31;10599517;27;20042;-75
2023/01/24 14:58:15;;;;;;;30.75;16.08;;;;;;;3.05;78.74;99677.06;10628940;27;20043;-76
2023/01/24 15:03:36;;;;;;;26.38;14.93;;;;;;;3.07;78.84;99666.28;10616146;27;20047;-75
2023/01/24 15:08:58;;;;;;;23.77;13.23;;;;;;;3.03;78.42;99668.53;10639251;27;20043;-75
2023/01/24 15:14:19;;;;;;;25.25;14.65;;;;;;;3.04;78.60;99664.50;10623856;27;20062;-76
2023/01/24 15:19:40;;;;;;;27.63;14.88;;;;;;;3.10;78.87;99668.06;10609839;27;20404;-75
2023/01/24 15:25:01;;;;;;;29.83;15.20;;;;;;;3.13;78.88;99664.28;10633052;27;20043;-76
2023/01/24 15:30:28;;;;;;;29.13;15.18;;;;;;;3.19;78.56;99669.09;10601844;27;20392;-75
2023/01/24 15:35:49;;;;;;;27.52;15.88;;;;;;;3.17;78.64;99673.06;10610325;27;20370;-77
2023/01/24 15:41:10;;;;;;;28.85;15.05;;;;;;;3.14;78.16;99679.59;10594499;27;20473;-77
2023/01/24 15:52:18;;;;;;;28.40;15.55;;;;;;;3.11;78.21;99685.38;10600149;27;20534;-77
2023/01/24 15:57:39;;;;;;;27.27;15.20;;;;;;;3.11;78.16;99696.41;10594636;27;20043;-76
2023/01/24 16:03:00;;;;;;;28.13;15.23;;;;;;;3.08;78.78;99689.84;10593811;28;20062;-76
2023/01/24 16:08:24;;;;;;;30.02;15.35;;;;;;;3.03;78.46;99690.59;10580500;27;20438;-77
2023/01/24 16:13:47;;;;;;;26.00;14.87;;;;;;;3.07;78.80;99695.88;10589667;27;20035;-77
2023/01/24 16:19:14;;;;;;;27.67;14.18;;;;;;;3.08;78.28;99692.59;10574376;27;20047;-79
2023/01/24 16:24:34;;;;;;;26.05;14.88;;;;;;;3.09;78.87;99694.13;10617420;27;20035;-78
2023/01/24 16:29:56;;;;;;;26.88;14.68;;;;;;;3.04;78.62;99686.59;10602053;27;20039;-77
2023/01/24 16:35:17;;;;;;;29.08;15.20;;;;;;;3.04;78.64;99689.34;10573369;27;20039;-76
2023/01/24 16:40:38;;;;;;;29.23;15.25;;;;;;;2.99;78.84;99683.78;10602005;27;20594;-76
2023/01/24 16:46:00;;;;;;;27.65;14.80;;;;;;;2.96;78.80;99684.78;10601610;27;20496;-76
2023/01/24 16:51:21;;;;;;;25.10;14.38;;;;;;;2.98;78.60;99688.56;10587538;27;20066;-76
2023/01/24 16:56:44;;;;;;;26.02;14.70;;;;;;;3.04;78.30;99689.34;10614071;27;20111;-77
2023/01/24 17:02:05;;;;;;;28.63;15.47;;;;;;;3.06;78.64;99680.56;10627659;27;20035;-77
2023/01/24 17:07:26;;;;;;;28.05;15.98;;;;;;;3.05;78.67;99679.81;10558440;28;20043;-76
2023/01/24 17:12:50;;;;;;;30.30;16.23;;;;;;;2.99;77.96;99684.56;10554715;27;20035;-77
2023/01/24 17:18:11;;;;;;;28.45;15.15;;;;;;;2.87;78.46;99683.00;10628878;27;20395;-78
2023/01/24 17:23:32;;;;;;;32.08;16.58;;;;;;;2.82;78.51;99687.25;10623910;27;20476;-79
2023/01/24 17:28:54;;;;;;;30.27;15.60;;;;;;;2.90;78.43;99697.84;10583566;27;20050;-77
2023/01/24 17:34:15;;;;;;;30.85;16.27;;;;;;;2.91;78.42;99691.81;10564298;27;20047;-76
2023/01/24 17:39:35;;;;;;;27.80;15.57;;;;;;;2.96;78.65;99693.06;10613539;27;20039;-77
2023/01/24 17:44:57;;;;;;;29.52;15.57;;;;;;;2.97;78.54;99689.81;10599313;27;20058;-77
2023/01/24 17:50:18;;;;;;;29.80;15.07;;;;;;;2.96;78.60;99693.06;10599038;27;20047;-77
2023/01/24 17:55:39;;;;;;;29.92;15.13;;;;;;;2.96;78.65;99691.06;10604856;27;20051;-76
2023/01/24 18:01:00;;;;;;;26.65;14.90;;;;;;;3.00;78.77;99685.34;10633939;27;20043;-77
2023/01/24 18:06:21;;;;;;;28.45;15.98;;;;;;;2.98;78.52;99687.81;10615732;27;20043;-78
2023/01/24 18:11:42;;;;;;;30.20;16.38;;;;;;;2.97;78.24;99687.06;10568221;27;20474;-76
2023/01/24 18:17:03;;;;;;;30.27;16.75;;;;;;;2.98;78.78;99694.09;10582946;27;20039;-77
2023/01/24 18:22:24;;;;;;;30.10;16.65;;;;;;;3.01;78.71;99693.09;10597507;27;20039;-76
2023/01/24 18:27:45;;;;;;;29.52;15.00;;;;;;;2.99;78.51;99681.03;10583477;27;20047;-77
2023/01/24 18:33:06;;;;;;;29.73;16.33;;;;;;;2.98;78.62;99685.81;10582844;27;20112;-78
2023/01/24 18:38:27;;;;;;;32.78;18.17;;;;;;;2.94;78.28;99670.75;10582828;27;20047;-76
2023/01/24 18:43:48;;;;;;;33.75;17.33;;;;;;;2.89;78.89;99686.03;10582713;27;20055;-76
2023/01/24 18:49:10;;;;;;;32.75;18.60;;;;;;;2.87;78.75;99677.50;10582350;27;20460;-78
2023/01/24 18:54:32;;;;;;;32.78;17.88;;;;;;;2.90;78.45;99684.03;10582642;27;20039;-77
2023/01/24 18:59:53;;;;;;;33.40;17.83;;;;;;;2.89;78.66;99677.75;10607987;27;20405;-79
2023/01/24 19:05:14;;;;;;;31.40;17.17;;;;;;;2.93;78.74;99677.53;10569542;27;20035;-77
2023/01/24 19:10:35;;;;;;;37.67;18.50;;;;;;;2.96;78.60;99682.03;10553580;28;20494;-77
2023/01/24 19:16:00;;;;;;;35.95;19.20;;;;;;;2.88;78.59;99684.50;10553918;28;20473;-78
2023/01/24 19:21:23;;;;;;;37.08;18.50;;;;;;;2.87;78.59;99678.25;10565027;27;20408;-77
2023/01/24 19:26:45;;;;;;;34.30;19.23;;;;;;;2.89;78.51;99674.97;10579316;27;20050;-77
2023/01/24 19:32:05;;;;;;;36.40;18.00;;;;;;;2.94;78.37;99687.31;10580649;27;20120;-76
2023/01/24 19:37:27;;;;;;;38.40;19.30;;;;;;;2.93;78.55;99678.28;10589968;27;20042;-77
2023/01/24 19:42:48;;;;;;;38.95;21.52;;;;;;;2.92;78.62;99679.53;10575245;27;20055;-77
2023/01/24 19:48:11;;;;;;;35.90;19.10;;;;;;;2.90;78.50;99682.03;10566565;27;20395;-77
2023/01/24 19:53:41;;;;;;;35.40;17.95;;;;;;;2.87;78.46;99688.53;10596898;27;20043;-76
2023/01/24 19:59:18;;;;;;;37.75;20.70;;;;;;;2.83;79.07;99688.00;10599445;27;20063;-76
2023/01/24 20:04:48;;;;;;;39.22;19.02;;;;;;;2.78;78.97;99694.25;10599097;28;20051;-77
2023/01/24 20:10:16;;;;;;;40.97;20.00;;;;;;;2.65;79.05;99682.91;10594393;28;20126;-76
2023/01/24 20:15:42;;;;;;;37.83;20.70;;;;;;;2.68;78.83;99692.94;10583559;28;20503;-76
2023/01/24 20:21:03;;;;;;;40.45;21.65;;;;;;;2.73;79.17;99697.75;10580908;28;20047;-76
2023/01/24 20:26:25;;;;;;;39.38;21.60;;;;;;;2.73;79.24;99697.75;10594040;28;20043;-76
2023/01/24 20:31:46;;;;;;;41.78;19.92;;;;;;;2.80;78.68;99697.28;10579431;28;20040;-76
2023/01/24 20:37:07;;;;;;;41.50;20.73;;;;;;;2.83;79.24;99693.53;10589034;28;20039;-77
2023/01/24 20:42:32;;;;;;;38.60;18.85;;;;;;;2.83;79.30;99694.28;10593444;28;20048;-76
2023/01/24 20:47:53;;;;;;;40.50;21.65;;;;;;;2.84;78.33;99689.53;10589080;28;20126;-76
2023/01/24 20:53:14;;;;;;;42.25;22.80;;;;;;;2.84;78.67;99686.75;10589482;28;20093;-76
2023/01/24 20:58:35;;;;;;;40.88;19.70;;;;;;;2.77;78.96;99685.22;10595439;27;20062;-76
2023/01/24 21:03:59;;;;;;;38.53;18.70;;;;;;;2.84;78.58;99684.75;10582997;27;20039;-76
2023/01/24 21:09:21;;;;;;;37.92;18.38;;;;;;;2.86;78.58;99689.78;10597425;27;20753;-76
2023/01/24 21:14:42;;;;;;;43.47;19.55;;;;;;;2.86;78.46;99695.28;10598347;27;20054;-76
2023/01/24 21:20:04;;;;;;;42.50;22.50;;;;;;;2.88;79.00;99684.50;10586498;27;20431;-76
2023/01/24 21:25:25;;;;;;;41.83;22.27;;;;;;;2.87;78.51;99683.75;10572189;27;20100;-76
2023/01/24 21:30:46;;;;;;;42.30;21.02;;;;;;;2.86;78.94;99689.78;10599807;27;20366;-76
2023/01/24 21:36:09;;;;;;;38.05;18.48;;;;;;;2.87;79.07;99683.00;10599978;27;20419;-76
2023/01/24 21:47:11;;;;;;;40.40;18.08;;;;;;;2.84;79.14;99695.03;10573265;28;20060;-76
2023/01/24 21:52:32;;;;;;;40.92;21.27;;;;;;;2.83;79.01;99688.78;10575118;27;20042;-76
2023/01/24 21:58:02;;;;;;;36.55;17.77;;;;;;;2.77;79.12;99682.47;10581937;27;20043;-76
2023/01/24 22:03:26;;;;;;;39.70;18.35;;;;;;;2.79;79.13;99690.25;10595465;27;20059;-76
2023/01/24 22:08:47;;;;;;;39.97;19.42;;;;;;;2.80;79.56;99677.97;10578756;27;20071;-76
2023/01/24 22:14:18;;;;;;;39.20;19.20;;;;;;;2.80;78.98;99670.47;10581940;27;20027;-76
2023/01/24 22:19:49;;;;;;;41.15;20.52;;;;;;;2.85;79.14;99664.19;10581271;27;20059;-75
2023/01/24 22:25:30;;;;;;;43.22;21.65;;;;;;;2.87;79.69;99669.22;10608123;27;20035;-76
2023/01/24 22:30:51;;;;;;;48.08;23.88;;;;;;;2.88;79.28;99665.19;10593054;27;20039;-77
2023/01/24 22:36:12;;;;;;;46.58;23.13;;;;;;;2.89;79.13;99652.91;10578038;27;20382;-76
2023/01/24 22:41:34;;;;;;;45.38;23.48;;;;;;;2.91;79.46;99633.13;10569159;27;20047;-76
2023/01/24 22:46:55;;;;;;;46.83;21.80;;;;;;;2.86;79.19;99638.13;10596766;27;20039;-76
2023/01/24 22:52:16;;;;;;;47.78;24.13;;;;;;;2.84;79.62;99624.06;10568527;27;20096;-76
2023/01/24 22:57:36;;;;;;;47.78;23.15;;;;;;;2.80;79.61;99622.81;10596403;27;20039;-76
2023/01/24 23:02:57;;;;;;;45.25;21.73;;;;;;;2.78;79.46;99630.81;10581794;27;20499;-76
2023/01/24 23:08:18;;;;;;;42.70;21.77;;;;;;;2.76;79.92;99612.00;10581536;27;20100;-76
2023/01/24 23:25:05;;;;;;;40.38;18.33;;;;;;;2.74;79.56;99608.25;10609712;27;20035;-76
2023/01/24 23:30:32;;;;;;;44.90;21.38;;;;;;;2.71;79.82;99612.75;10581204;27;20468;-76
2023/01/24 23:35:54;;;;;;;39.70;18.50;;;;;;;2.72;79.56;99610.75;10595526;27;20047;-76
2023/01/24 23:41:16;;;;;;;47.35;21.67;;;;;;;2.75;79.51;99607.00;10594705;27;20725;-76
2023/01/24 23:46:37;;;;;;;41.95;21.60;;;;;;;2.77;79.49;99598.97;10622969;27;20039;-76
2023/01/24 23:51:58;;;;;;;42.65;21.45;;;;;;;2.75;79.83;99588.44;10637151;27;20041;-75
2023/01/24 23:57:19;;;;;;;41.13;18.83;;;;;;;2.75;79.83;99585.69;10622928;27;20121;-76
